Time;durP1;ratioP1;P1;durP2;ratioP2;P2;SDS_P1;SDS_P2;PMS_P1;PMS_P2;Temp;Humidity;BMP_temperature;BMP_pressure;BME280_temperature;BME280_humidity;BME280_pressure;Samples;Min_cycle;Max_cycle;Signal;HPM_P1;HPM_P2
2022/05/28 00:00:17;;;;;;;2.40;1.20;;;10.20;99.90;;;;;;5078601;28;20216;-71
2022/05/28 00:02:44;;;;;;;2.77;1.20;;;10.20;99.90;;;;;;5083659;28;20205;-70
2022/05/28 00:05:11;;;;;;;3.63;1.27;;;10.20;99.90;;;;;;5079169;28;20216;-70
2022/05/28 00:07:38;;;;;;;1.90;1.10;;;10.10;99.90;;;;;;5075009;28;20256;-70
2022/05/28 00:10:06;;;;;;;3.10;1.30;;;10.10;99.90;;;;;;5077140;28;20216;-70
2022/05/28 00:12:34;;;;;;;1.30;0.87;;;10.10;99.90;;;;;;5077249;28;20217;-70
2022/05/28 00:15:01;;;;;;;1.50;1.10;;;10.10;99.90;;;;;;5073455;28;20799;-70
2022/05/28 00:17:28;;;;;;;3.43;1.20;;;10.10;99.90;;;;;;5076130;28;20206;-70
2022/05/28 00:19:55;;;;;;;2.47;0.90;;;10.10;99.90;;;;;;5076373;28;20547;-70
2022/05/28 00:22:22;;;;;;;2.43;1.23;;;10.00;99.90;;;;;;5076774;28;20203;-69
2022/05/28 00:24:49;;;;;;;3.57;1.20;;;10.00;99.90;;;;;;5076015;28;20562;-70
2022/05/28 00:27:16;;;;;;;1.60;1.10;;;10.00;99.90;;;;;;5074670;28;20213;-70
2022/05/28 00:29:44;;;;;;;2.17;1.20;;;10.00;99.90;;;;;;5090323;28;20759;-69
2022/05/28 00:32:11;;;;;;;2.07;1.10;;;10.00;99.90;;;;;;5074372;28;20781;-69
2022/05/28 00:34:40;;;;;;;4.17;1.20;;;10.00;99.90;;;;;;5070487;28;20231;-71
2022/05/28 00:37:07;;;;;;;3.37;1.13;;;9.90;99.90;;;;;;5073247;28;20229;-70
2022/05/28 00:39:35;;;;;;;2.93;0.90;;;9.90;99.90;;;;;;5074083;28;20206;-70
2022/05/28 00:42:02;;;;;;;4.00;1.13;;;9.90;99.90;;;;;;5079252;28;20299;-70
2022/05/28 00:44:29;;;;;;;2.80;1.03;;;9.90;99.90;;;;;;5087861;28;20212;-70
2022/05/28 00:46:59;;;;;;;1.77;1.03;;;9.80;99.90;;;;;;5075692;28;20579;-70
2022/05/28 00:49:30;;;;;;;2.57;1.23;;;9.80;99.90;;;;;;5074386;28;20865;-70
2022/05/28 00:52:00;;;;;;;1.47;0.80;;;9.80;99.90;;;;;;5077102;28;20709;-70
2022/05/28 00:54:31;;;;;;;4.03;1.03;;;9.80;99.90;;;;;;5065751;28;20197;-70
2022/05/28 00:56:58;;;;;;;2.80;1.27;;;9.80;99.90;;;;;;5076497;28;20694;-71
2022/05/28 00:59:25;;;;;;;1.70;0.80;;;9.80;99.90;;;;;;5075688;28;20237;-70
2022/05/28 01:02:01;;;;;;;2.80;1.10;;;9.70;99.90;;;;;;5078258;28;20213;-68
2022/05/28 01:04:35;;;;;;;2.40;0.90;;;9.70;99.90;;;;;;5077257;28;20661;-67
2022/05/28 01:07:09;;;;;;;3.80;1.10;;;9.70;99.90;;;;;;5077068;28;20276;-67
2022/05/28 01:09:44;;;;;;;2.87;1.13;;;9.70;99.90;;;;;;5077600;28;20265;-68
2022/05/28 01:12:15;;;;;;;4.13;1.10;;;9.70;99.90;;;;;;5076972;28;20239;-67
2022/05/28 01:14:51;;;;;;;5.93;1.40;;;9.70;99.90;;;;;;5075040;28;20251;-68
2022/05/28 01:17:25;;;;;;;0.90;0.80;;;9.70;99.90;;;;;;5075479;28;20249;-68
2022/05/28 01:20:01;;;;;;;3.63;0.90;;;9.60;99.90;;;;;;5077300;28;21540;-68
2022/05/28 01:22:50;;;;;;;3.27;0.90;;;9.70;99.90;;;;;;5075714;28;20219;-68
2022/05/28 01:25:25;;;;;;;1.60;0.90;;;9.60;99.90;;;;;;5048709;28;20215;-67
2022/05/28 01:27:59;;;;;;;1.43;0.87;;;9.60;99.90;;;;;;5073261;28;20204;-68
2022/05/28 01:30:26;;;;;;;3.93;1.10;;;9.60;99.90;;;;;;5065713;28;20228;-68
2022/05/28 01:32:55;;;;;;;2.13;1.00;;;9.50;99.90;;;;;;5076690;28;20201;-68
2022/05/28 01:35:24;;;;;;;2.50;1.00;;;9.60;99.90;;;;;;5075047;28;20209;-68
2022/05/28 01:37:53;;;;;;;2.13;1.00;;;9.50;99.90;;;;;;5077713;28;20234;-68
2022/05/28 01:40:22;;;;;;;3.23;0.73;;;9.50;99.90;;;;;;5076740;28;20212;-68
2022/05/28 01:42:54;;;;;;;1.73;0.80;;;9.50;99.90;;;;;;5078664;28;20228;-68
2022/05/28 01:45:25;;;;;;;2.13;1.23;;;9.40;99.90;;;;;;5075404;28;20605;-68
2022/05/28 01:47:54;;;;;;;1.83;0.80;;;9.40;99.90;;;;;;5072431;28;20241;-67
2022/05/28 01:50:24;;;;;;;1.63;0.90;;;9.40;99.90;;;;;;5070100;28;20248;-68
2022/05/28 01:52:52;;;;;;;3.17;1.10;;;9.40;99.90;;;;;;5073020;28;20213;-68
2022/05/28 01:55:21;;;;;;;4.93;0.83;;;9.40;99.90;;;;;;5075935;28;20270;-69
2022/05/28 01:57:48;;;;;;;4.93;0.83;;;9.40;99.90;;;;;;5075058;28;20319;-68
2022/05/28 02:00:18;;;;;;;1.67;0.60;;;9.50;99.90;;;;;;5076167;28;20201;-68
2022/05/28 02:02:45;;;;;;;3.00;1.20;;;9.40;99.90;;;;;;5082505;28;20653;-68
2022/05/28 02:05:13;;;;;;;2.20;1.00;;;9.40;99.90;;;;;;5081231;28;20206;-68
2022/05/28 02:07:40;;;;;;;4.53;1.10;;;9.40;99.90;;;;;;5074448;28;20205;-67
2022/05/28 02:10:11;;;;;;;4.10;1.20;;;9.40;99.90;;;;;;5076621;28;20205;-67
2022/05/28 02:12:48;;;;;;;2.83;0.93;;;9.40;99.90;;;;;;5076893;28;20217;-68
2022/05/28 02:15:30;;;;;;;1.50;0.93;;;9.50;99.90;;;;;;5075046;28;20632;-67
2022/05/28 02:18:03;;;;;;;3.80;0.80;;;9.40;99.90;;;;;;5073857;28;20220;-68
2022/05/28 02:20:38;;;;;;;3.80;1.20;;;9.40;99.90;;;;;;5077234;28;20292;-67
2022/05/28 02:23:13;;;;;;;3.90;0.87;;;9.40;99.90;;;;;;5076044;28;20291;-68
2022/05/28 02:25:52;;;;;;;1.23;0.70;;;9.40;99.90;;;;;;5074358;28;20211;-68
2022/05/28 02:28:23;;;;;;;2.40;0.70;;;9.40;99.90;;;;;;5074062;28;20209;-67
2022/05/28 02:30:53;;;;;;;3.50;1.27;;;9.50;99.90;;;;;;5073185;28;20296;-68
2022/05/28 02:33:20;;;;;;;3.67;1.20;;;9.50;99.90;;;;;;5070107;28;20249;-67
2022/05/28 02:35:47;;;;;;;3.50;1.07;;;9.60;99.90;;;;;;5068705;28;20554;-67
2022/05/28 02:38:15;;;;;;;5.10;0.90;;;9.50;99.90;;;;;;5073177;28;20205;-68
2022/05/28 02:40:42;;;;;;;1.40;0.90;;;9.50;99.90;;;;;;5075036;28;20235;-67
2022/05/28 02:43:09;;;;;;;1.47;0.90;;;9.40;99.90;;;;;;5087549;28;20204;-67
2022/05/28 02:45:37;;;;;;;1.87;1.10;;;9.40;99.90;;;;;;5067674;28;20280;-67
2022/05/28 02:48:06;;;;;;;1.60;0.90;;;9.50;99.90;;;;;;5068890;28;20209;-67
2022/05/28 02:50:33;;;;;;;2.70;1.00;;;9.50;99.90;;;;;;5073603;28;20589;-67
2022/05/28 02:53:01;;;;;;;2.53;1.00;;;9.50;99.90;;;;;;5076144;28;20739;-68
2022/05/28 02:55:28;;;;;;;5.07;1.30;;;9.50;99.90;;;;;;5074817;28;20262;-67
2022/05/28 02:57:55;;;;;;;4.77;1.07;;;9.50;99.90;;;;;;5072450;28;20229;-67
2022/05/28 03:00:22;;;;;;;3.60;0.77;;;9.50;99.90;;;;;;5068516;28;20296;-67
2022/05/28 03:02:49;;;;;;;2.47;0.90;;;9.60;99.90;;;;;;5080558;28;20555;-67
2022/05/28 03:05:21;;;;;;;2.37;1.00;;;9.60;99.90;;;;;;5075378;28;20268;-67
2022/05/28 03:07:47;;;;;;;3.57;1.13;;;9.70;99.90;;;;;;5079127;28;20709;-68
2022/05/28 03:10:15;;;;;;;2.07;0.77;;;9.70;99.90;;;;;;5074474;28;20274;-67
2022/05/28 03:12:42;;;;;;;3.33;1.00;;;9.80;99.90;;;;;;5073159;28;20247;-68
2022/05/28 03:15:10;;;;;;;3.30;1.50;;;9.80;99.90;;;;;;5082425;28;20240;-68
2022/05/28 03:17:38;;;;;;;1.80;0.90;;;9.80;99.90;;;;;;5082514;28;20232;-68
2022/05/28 03:20:06;;;;;;;1.80;1.00;;;9.80;99.90;;;;;;5080100;28;20699;-68
2022/05/28 03:22:34;;;;;;;5.10;1.10;;;9.80;99.90;;;;;;5074505;28;20212;-68
2022/05/28 03:25:01;;;;;;;1.20;0.60;;;9.90;99.90;;;;;;5075864;28;20220;-67
2022/05/28 03:27:28;;;;;;;1.90;0.70;;;9.90;99.90;;;;;;5079740;28;20307;-67
2022/05/28 03:29:54;;;;;;;3.77;0.77;;;9.90;99.90;;;;;;5092909;28;20253;-67
2022/05/28 03:32:21;;;;;;;3.03;0.73;;;10.00;99.90;;;;;;5078983;28;20227;-68
2022/05/28 03:34:48;;;;;;;4.20;1.13;;;10.00;99.90;;;;;;5074542;28;20218;-68
2022/05/28 03:37:15;;;;;;;4.00;0.80;;;10.00;99.90;;;;;;5086662;28;20309;-68
2022/05/28 03:39:43;;;;;;;2.77;1.00;;;10.10;99.90;;;;;;5078409;28;20231;-67
2022/05/28 03:42:10;;;;;;;1.67;0.73;;;10.10;99.90;;;;;;5078859;28;20292;-67
2022/05/28 03:44:37;;;;;;;1.73;0.90;;;10.10;99.90;;;;;;5071160;28;20277;-67
2022/05/28 03:47:05;;;;;;;2.70;1.10;;;10.20;99.90;;;;;;5074122;28;20209;-68
2022/05/28 03:49:35;;;;;;;4.40;1.20;;;10.20;99.90;;;;;;5077606;28;20233;-67
2022/05/28 03:52:02;;;;;;;3.73;1.07;;;10.20;99.90;;;;;;5075463;28;20193;-68
2022/05/28 03:54:29;;;;;;;3.43;1.00;;;10.30;99.90;;;;;;5079027;28;20241;-67
2022/05/28 03:57:00;;;;;;;2.90;1.10;;;10.30;99.90;;;;;;5080272;28;20229;-68
2022/05/28 03:59:27;;;;;;;2.40;1.07;;;10.40;99.90;;;;;;5083741;28;20230;-68
2022/05/28 04:01:54;;;;;;;2.20;1.00;;;10.40;99.90;;;;;;5079089;28;20198;-67
2022/05/28 04:04:21;;;;;;;4.73;1.60;;;10.40;99.90;;;;;;5079095;28;20302;-67
2022/05/28 04:06:48;;;;;;;5.50;0.90;;;10.40;99.90;;;;;;5078658;28;20335;-67
2022/05/28 04:09:15;;;;;;;5.63;1.40;;;10.40;99.90;;;;;;5078280;28;20720;-68
2022/05/28 04:11:42;;;;;;;5.13;0.90;;;10.50;99.90;;;;;;5078817;28;20243;-67
2022/05/28 04:14:10;;;;;;;3.33;1.07;;;10.50;99.90;;;;;;5078243;28;20666;-67
2022/05/28 04:16:37;;;;;;;5.07;1.37;;;10.50;99.90;;;;;;5080018;28;20217;-67
2022/05/28 04:19:05;;;;;;;2.47;1.00;;;10.50;99.90;;;;;;5078974;28;20209;-67
2022/05/28 04:21:32;;;;;;;2.10;0.93;;;10.50;99.90;;;;;;5076660;28;20215;-67
2022/05/28 04:23:59;;;;;;;4.40;1.00;;;10.40;99.90;;;;;;5069371;28;20212;-67
2022/05/28 04:26:26;;;;;;;2.10;1.13;;;10.50;99.90;;;;;;5080987;28;20280;-68
2022/05/28 04:28:53;;;;;;;2.53;1.10;;;10.50;99.90;;;;;;5078308;28;20255;-68
2022/05/28 04:31:21;;;;;;;4.03;1.27;;;10.50;99.90;;;;;;5075645;28;20313;-67
2022/05/28 04:33:48;;;;;;;3.53;1.30;;;10.40;99.90;;;;;;5076369;28;20607;-68
2022/05/28 04:36:16;;;;;;;3.37;1.60;;;10.50;99.90;;;;;;5077412;28;20603;-67
2022/05/28 04:38:43;;;;;;;2.53;1.27;;;10.50;99.90;;;;;;5078257;28;20289;-67
2022/05/28 04:41:10;;;;;;;3.40;1.20;;;10.60;99.90;;;;;;5076777;28;20210;-68
2022/05/28 04:43:37;;;;;;;2.70;1.50;;;10.60;99.90;;;;;;5076167;28;20198;-68
2022/05/28 04:46:04;;;;;;;3.63;1.20;;;10.60;99.90;;;;;;5077868;28;20198;-68
2022/05/28 04:48:33;;;;;;;3.67;1.47;;;10.60;99.90;;;;;;5079045;28;20296;-68
2022/05/28 04:51:00;;;;;;;3.30;1.17;;;10.70;99.90;;;;;;5075385;28;20221;-67
2022/05/28 04:53:27;;;;;;;1.23;1.10;;;10.70;99.90;;;;;;5075716;28;20208;-68
2022/05/28 04:55:54;;;;;;;2.47;1.10;;;10.70;99.90;;;;;;5077401;28;20209;-68
2022/05/28 04:58:21;;;;;;;3.33;1.03;;;10.80;99.90;;;;;;5077992;28;20328;-68
2022/05/28 05:00:48;;;;;;;1.87;0.97;;;10.80;99.90;;;;;;5071286;28;20335;-68
2022/05/28 05:03:15;;;;;;;4.03;1.13;;;10.80;99.90;;;;;;5077248;28;20248;-68
2022/05/28 05:05:44;;;;;;;2.07;1.07;;;10.80;99.90;;;;;;5071893;28;20580;-68
2022/05/28 05:08:11;;;;;;;1.60;1.00;;;10.80;99.90;;;;;;5078500;28;20205;-68
2022/05/28 05:10:38;;;;;;;2.00;1.20;;;10.80;99.90;;;;;;5076141;28;20225;-68
2022/05/28 05:13:05;;;;;;;1.50;1.40;;;10.90;99.90;;;;;;5078483;28;20201;-68
2022/05/28 05:15:34;;;;;;;1.90;0.90;;;11.00;99.90;;;;;;5073755;28;20327;-68
2022/05/28 05:18:01;;;;;;;3.63;1.20;;;11.00;99.90;;;;;;5079006;28;20220;-68
2022/05/28 05:20:27;;;;;;;2.27;1.20;;;11.00;99.90;;;;;;5086497;28;20204;-68
2022/05/28 05:22:56;;;;;;;3.27;1.00;;;11.00;99.90;;;;;;5082802;28;20304;-67
2022/05/28 05:25:24;;;;;;;1.87;1.03;;;11.10;99.90;;;;;;5067728;28;20205;-68
2022/05/28 05:27:51;;;;;;;2.30;0.97;;;11.20;99.90;;;;;;5075914;28;20205;-67
2022/05/28 05:30:18;;;;;;;4.17;1.10;;;11.30;99.90;;;;;;5076450;28;20319;-68
2022/05/28 05:32:45;;;;;;;3.80;1.13;;;11.40;99.90;;;;;;5076549;28;20244;-68
2022/05/28 05:35:12;;;;;;;1.43;1.27;;;11.50;99.90;;;;;;5077031;28;20212;-68
2022/05/28 05:37:39;;;;;;;4.47;1.20;;;11.70;99.90;;;;;;5085544;28;20290;-68
2022/05/28 05:40:10;;;;;;;3.00;1.30;;;11.80;99.90;;;;;;5066982;28;20240;-67
2022/05/28 05:42:36;;;;;;;2.43;1.30;;;11.80;99.90;;;;;;5076467;28;20285;-67
2022/05/28 05:45:04;;;;;;;4.33;1.50;;;11.80;99.90;;;;;;5076176;28;20263;-68
2022/05/28 05:47:31;;;;;;;6.03;1.50;;;11.80;99.90;;;;;;5077545;28;20265;-67
2022/05/28 05:49:58;;;;;;;1.93;1.30;;;11.80;99.90;;;;;;5068210;28;20205;-68
2022/05/28 05:52:25;;;;;;;2.53;1.20;;;11.80;99.90;;;;;;5077826;28;20205;-68
2022/05/28 05:54:53;;;;;;;2.17;1.50;;;11.80;99.90;;;;;;5083213;28;20209;-67
2022/05/28 05:57:21;;;;;;;3.03;1.47;;;11.80;99.90;;;;;;5086015;28;20925;-68
2022/05/28 05:59:48;;;;;;;2.63;1.53;;;11.70;99.90;;;;;;5085786;28;20326;-68
2022/05/28 06:02:15;;;;;;;2.77;1.93;;;11.70;99.90;;;;;;5092538;28;20243;-68
2022/05/28 06:04:42;;;;;;;4.97;1.80;;;11.80;99.90;;;;;;5080626;28;20237;-68
2022/05/28 06:07:09;;;;;;;6.47;1.53;;;11.90;99.90;;;;;;5088605;28;20251;-69
2022/05/28 06:09:36;;;;;;;2.17;1.50;;;12.00;99.90;;;;;;5076429;28;20652;-68
2022/05/28 06:12:03;;;;;;;5.53;1.77;;;12.10;99.90;;;;;;5076367;28;20201;-69
2022/05/28 06:14:32;;;;;;;1.60;1.50;;;12.20;99.90;;;;;;5076706;28;20272;-68
2022/05/28 06:16:58;;;;;;;3.00;1.43;;;12.30;99.90;;;;;;5074723;28;20688;-68
2022/05/28 06:19:25;;;;;;;2.83;1.63;;;12.30;99.90;;;;;;5073832;28;20213;-68
2022/05/28 06:21:52;;;;;;;1.80;1.20;;;12.40;99.90;;;;;;5077265;28;20205;-68
2022/05/28 06:24:19;;;;;;;2.37;1.30;;;12.50;99.90;;;;;;5073411;28;20237;-68
2022/05/28 06:26:46;;;;;;;2.83;1.27;;;12.50;99.90;;;;;;5077313;28;20288;-68
2022/05/28 06:29:13;;;;;;;1.33;1.20;;;12.60;99.90;;;;;;5073439;28;20251;-69
2022/05/28 06:31:41;;;;;;;3.40;1.40;;;12.70;99.90;;;;;;5074496;28;20633;-68
2022/05/28 06:34:08;;;;;;;2.00;1.10;;;12.80;99.90;;;;;;5072023;28;20309;-68
2022/05/28 06:36:35;;;;;;;3.70;1.10;;;12.80;99.90;;;;;;5078089;28;20584;-68
2022/05/28 06:39:02;;;;;;;3.00;1.30;;;12.80;99.90;;;;;;5074968;28;20643;-67
2022/05/28 06:41:29;;;;;;;4.40;1.20;;;12.80;99.90;;;;;;5070443;28;20209;-69
2022/05/28 06:43:56;;;;;;;1.03;0.80;;;12.90;99.90;;;;;;5072190;28;20283;-70
2022/05/28 06:46:23;;;;;;;3.87;1.30;;;12.90;99.90;;;;;;5072817;28;20231;-68
2022/05/28 06:48:51;;;;;;;2.57;1.03;;;13.00;99.90;;;;;;5077664;28;20263;-68
2022/05/28 06:51:18;;;;;;;2.57;1.20;;;13.10;99.90;;;;;;5067475;28;20292;-69
2022/05/28 06:53:48;;;;;;;1.67;1.10;;;13.10;99.90;;;;;;5066347;28;20277;-68
2022/05/28 06:56:16;;;;;;;4.00;1.00;;;13.10;99.90;;;;;;5066169;28;20577;-68
2022/05/28 06:58:44;;;;;;;3.17;0.90;;;13.10;99.90;;;;;;5065916;28;20272;-67
2022/05/28 07:01:12;;;;;;;1.23;0.80;;;13.10;99.90;;;;;;5068697;28;20636;-69
2022/05/28 07:03:42;;;;;;;4.40;1.17;;;13.10;99.90;;;;;;5068512;28;20208;-68
2022/05/28 07:06:11;;;;;;;1.40;0.90;;;13.20;99.90;;;;;;5068513;28;20212;-68
2022/05/28 07:08:38;;;;;;;3.17;1.00;;;13.20;99.90;;;;;;5065935;28;20259;-68
2022/05/28 07:11:06;;;;;;;2.70;0.90;;;13.20;99.60;;;;;;5065704;28;20647;-68
2022/05/28 07:13:34;;;;;;;1.50;0.90;;;13.20;98.90;;;;;;5065374;28;20307;-68
2022/05/28 07:16:03;;;;;;;1.83;1.13;;;13.20;98.90;;;;;;5065030;28;20324;-69
2022/05/28 07:18:30;;;;;;;1.67;1.00;;;13.30;98.80;;;;;;5066589;28;20224;-67
2022/05/28 07:20:57;;;;;;;2.10;0.93;;;13.30;98.00;;;;;;5067327;28;20539;-69
2022/05/28 07:23:28;;;;;;;2.57;0.90;;;13.40;97.90;;;;;;5069586;28;20224;-68
2022/05/28 07:26:03;;;;;;;1.40;0.80;;;13.40;97.80;;;;;;5068998;28;20304;-70
2022/05/28 07:28:32;;;;;;;3.17;1.30;;;13.40;97.20;;;;;;5069356;28;20222;-73
2022/05/28 07:31:01;;;;;;;2.73;1.00;;;13.40;96.60;;;;;;5071165;28;20557;-69
2022/05/28 07:33:29;;;;;;;1.40;1.00;;;13.30;96.20;;;;;;5066541;28;20210;-69
2022/05/28 07:35:58;;;;;;;1.67;0.90;;;13.30;95.90;;;;;;5067810;28;20232;-68
2022/05/28 07:38:28;;;;;;;2.93;0.93;;;13.20;95.70;;;;;;5068268;28;20711;-69
2022/05/28 07:40:55;;;;;;;1.77;0.83;;;13.30;96.10;;;;;;5065122;28;20223;-70
2022/05/28 07:43:22;;;;;;;2.33;0.90;;;13.20;96.50;;;;;;5063442;28;20300;-69
2022/05/28 07:45:50;;;;;;;1.67;1.00;;;13.30;96.70;;;;;;5065944;28;20300;-70
2022/05/28 07:48:17;;;;;;;4.60;1.23;;;13.30;96.10;;;;;;5070218;28;20646;-69
2022/05/28 07:50:45;;;;;;;2.83;1.10;;;13.30;96.10;;;;;;5073540;28;20288;-68
2022/05/28 07:53:13;;;;;;;2.50;0.80;;;13.30;96.50;;;;;;5066811;28;20274;-70
2022/05/28 07:55:41;;;;;;;4.43;1.00;;;13.30;96.90;;;;;;5075788;28;20241;-68
2022/05/28 07:58:10;;;;;;;1.20;0.77;;;13.50;96.30;;;;;;5075408;28;20251;-68
2022/05/28 08:00:42;;;;;;;1.93;1.20;;;13.50;95.50;;;;;;5076065;28;20604;-70
2022/05/28 08:03:10;;;;;;;2.00;1.00;;;13.50;95.00;;;;;;5084897;28;20636;-67
2022/05/28 08:05:39;;;;;;;5.90;1.33;;;13.60;95.10;;;;;;5079864;28;20662;-67
2022/05/28 08:08:07;;;;;;;2.63;1.00;;;13.80;94.90;;;;;;5076548;28;20638;-67
2022/05/28 08:10:35;;;;;;;4.10;1.50;;;14.10;94.10;;;;;;5077538;28;20244;-68
2022/05/28 08:13:04;;;;;;;3.93;0.83;;;14.30;93.00;;;;;;5079117;28;20222;-67
2022/05/28 08:15:32;;;;;;;2.03;1.00;;;14.40;91.30;;;;;;5072553;28;20241;-66
2022/05/28 08:17:59;;;;;;;1.83;0.90;;;14.40;90.60;;;;;;5076346;28;20694;-69
2022/05/28 08:23:10;;;;;;;1.80;0.87;;;14.60;90.40;;;;;;5072303;28;20263;-69
2022/05/28 08:25:39;;;;;;;2.13;1.07;;;14.60;90.30;;;;;;5068973;28;20291;-68
2022/05/28 08:28:07;;;;;;;2.63;0.87;;;14.70;90.60;;;;;;5067606;28;20954;-67
2022/05/28 08:30:34;;;;;;;1.63;0.90;;;14.80;91.00;;;;;;5069457;28;20303;-68
2022/05/28 08:33:01;;;;;;;4.63;1.00;;;15.00;91.10;;;;;;5067962;28;20209;-72
2022/05/28 08:35:28;;;;;;;3.73;1.20;;;15.10;90.50;;;;;;5069475;28;20204;-69
2022/05/28 08:37:55;;;;;;;5.53;0.90;;;15.30;90.10;;;;;;5068672;28;20278;-67
2022/05/28 08:40:23;;;;;;;3.47;1.37;;;15.30;88.90;;;;;;5081548;28;20216;-70
2022/05/28 08:42:50;;;;;;;3.27;1.00;;;15.40;89.10;;;;;;5075290;28;20203;-69
2022/05/28 08:45:19;;;;;;;4.03;1.10;;;15.50;88.80;;;;;;5077472;28;20220;-69
2022/05/28 08:47:48;;;;;;;2.30;0.80;;;15.50;86.70;;;;;;5076993;28;20296;-67
2022/05/28 08:50:16;;;;;;;3.00;0.80;;;15.40;86.20;;;;;;5075271;28;20229;-68
2022/05/28 08:52:48;;;;;;;2.20;0.90;;;15.50;85.30;;;;;;5077146;28;20232;-68
2022/05/28 08:55:22;;;;;;;6.10;0.90;;;15.50;84.70;;;;;;5073947;28;20232;-68
2022/05/28 08:57:57;;;;;;;4.70;1.00;;;15.50;83.90;;;;;;5078702;28;20201;-68
2022/05/28 09:00:32;;;;;;;2.80;1.03;;;15.40;83.70;;;;;;5075839;28;20274;-70
2022/05/28 09:03:06;;;;;;;1.93;1.00;;;15.40;83.10;;;;;;5070515;28;20204;-68
2022/05/28 09:05:45;;;;;;;2.37;1.00;;;15.50;83.90;;;;;;5077834;28;20231;-68
2022/05/28 09:08:14;;;;;;;3.03;0.77;;;15.60;82.80;;;;;;5072291;28;20212;-69
2022/05/28 09:10:46;;;;;;;1.90;0.77;;;15.90;83.00;;;;;;5070970;28;20312;-70
2022/05/28 09:13:20;;;;;;;4.07;1.17;;;16.10;81.20;;;;;;5081187;28;20205;-69
2022/05/28 09:15:49;;;;;;;3.83;1.00;;;16.10;79.70;;;;;;5077060;28;20240;-69
2022/05/28 09:18:18;;;;;;;2.93;0.90;;;15.90;79.70;;;;;;5075198;28;20229;-70
2022/05/28 09:20:47;;;;;;;3.97;1.00;;;15.80;80.50;;;;;;5072295;28;20215;-69
2022/05/28 09:23:15;;;;;;;4.87;1.10;;;15.80;80.60;;;;;;5079749;28;20281;-69
2022/05/28 09:25:50;;;;;;;6.70;1.20;;;15.80;80.60;;;;;;5077556;28;20724;-69
2022/05/28 09:28:29;;;;;;;2.50;0.90;;;15.80;80.70;;;;;;5081319;28;20265;-69
2022/05/28 09:31:06;;;;;;;2.17;0.80;;;15.80;80.50;;;;;;5087842;28;20242;-69
2022/05/28 09:34:01;;;;;;;3.97;1.03;;;15.80;79.00;;;;;;5079738;28;20236;-69
2022/05/28 09:36:37;;;;;;;4.03;1.10;;;16.00;78.70;;;;;;5077404;28;20480;-69
2022/05/28 09:39:15;;;;;;;2.67;1.00;;;16.20;78.30;;;;;;5086471;28;20213;-70
2022/05/28 09:41:54;;;;;;;2.57;1.20;;;16.40;78.10;;;;;;5072876;28;20205;-69
2022/05/28 09:44:39;;;;;;;2.20;0.70;;;16.40;75.50;;;;;;5066516;28;20259;-68
2022/05/28 09:47:10;;;;;;;2.73;1.00;;;16.40;73.20;;;;;;5076391;28;20205;-69
2022/05/28 09:49:48;;;;;;;2.93;1.10;;;16.50;73.50;;;;;;5078713;28;20265;-68
2022/05/28 09:52:22;;;;;;;3.20;1.20;;;16.30;73.70;;;;;;5077038;28;20212;-68
2022/05/28 09:54:48;;;;;;;3.20;0.90;;;16.20;73.90;;;;;;5077583;28;20204;-68
2022/05/28 09:57:24;;;;;;;2.97;0.87;;;16.10;74.30;;;;;;5078839;28;20208;-69
2022/05/28 09:59:55;;;;;;;3.03;0.80;;;16.20;74.90;;;;;;5076284;28;20320;-68
2022/05/28 10:02:26;;;;;;;4.40;1.97;;;16.20;75.50;;;;;;5078715;28;20616;-69
2022/05/28 10:04:56;;;;;;;2.03;0.90;;;16.30;76.20;;;;;;5076851;28;20229;-68
2022/05/28 10:07:35;;;;;;;1.83;0.97;;;16.30;75.50;;;;;;5076391;28;20573;-69
2022/05/28 10:10:12;;;;;;;3.67;1.37;;;16.10;75.80;;;;;;5074109;28;20197;-69
2022/05/28 10:12:39;;;;;;;5.77;1.40;;;15.70;80.80;;;;;;5078385;28;20296;-69
2022/05/28 10:15:11;;;;;;;1.90;0.77;;;15.30;85.40;;;;;;5070575;28;20323;-68
2022/05/28 10:17:42;;;;;;;2.37;1.17;;;14.90;86.80;;;;;;5062142;28;20209;-69
2022/05/28 10:20:17;;;;;;;1.27;0.73;;;14.60;87.70;;;;;;5076019;28;20245;-69
2022/05/28 10:22:46;;;;;;;3.93;0.90;;;14.30;88.90;;;;;;5076795;28;20212;-69
2022/05/28 10:25:29;;;;;;;2.10;0.80;;;14.30;89.90;;;;;;5075296;28;20288;-68
2022/05/28 10:27:57;;;;;;;2.07;0.93;;;14.30;89.50;;;;;;5073954;28;20201;-68
2022/05/28 10:30:31;;;;;;;2.20;0.60;;;14.40;89.50;;;;;;5078643;28;20732;-69
2022/05/28 10:33:04;;;;;;;2.20;0.90;;;14.40;89.50;;;;;;5077707;28;20192;-69
2022/05/28 10:35:31;;;;;;;6.10;0.90;;;14.50;90.10;;;;;;5078409;28;20251;-68
2022/05/28 10:38:07;;;;;;;2.13;0.87;;;14.60;90.10;;;;;;5072669;28;20206;-68
2022/05/28 10:40:39;;;;;;;1.07;0.97;;;14.70;90.30;;;;;;5077972;28;20317;-69
2022/05/28 10:43:16;;;;;;;2.03;1.00;;;14.80;90.30;;;;;;5079098;28;20225;-69
2022/05/28 10:45:49;;;;;;;2.10;0.80;;;15.10;90.40;;;;;;5075946;28;20205;-69
2022/05/28 10:48:34;;;;;;;2.47;0.73;;;15.20;89.40;;;;;;5075382;28;20229;-69
2022/05/28 10:51:14;;;;;;;2.00;0.83;;;15.10;87.70;;;;;;5070427;28;20208;-69
2022/05/28 10:53:59;;;;;;;2.63;1.20;;;15.10;86.90;;;;;;5077611;28;20224;-68
2022/05/28 10:56:45;;;;;;;3.07;1.00;;;14.90;87.10;;;;;;5067007;28;20198;-68
2022/05/28 10:59:25;;;;;;;3.50;0.80;;;14.80;87.90;;;;;;5079060;28;20291;-69
2022/05/28 11:01:58;;;;;;;2.47;0.90;;;14.70;88.50;;;;;;5075557;28;20274;-69
2022/05/28 11:04:49;;;;;;;5.20;1.60;;;14.50;89.40;;;;;;5077441;28;20300;-70
2022/05/28 11:07:44;;;;;;;4.93;1.47;;;14.40;90.70;;;;;;5075811;28;20631;-68
2022/05/28 11:10:21;;;;;;;3.17;0.87;;;14.30;92.20;;;;;;5070906;28;20243;-69
2022/05/28 11:13:24;;;;;;;5.47;0.57;;;14.10;92.90;;;;;;5075787;28;20259;-69
2022/05/28 11:16:03;;;;;;;2.13;0.40;;;13.90;91.50;;;;;;5077384;28;20242;-69
2022/05/28 11:18:54;;;;;;;2.03;0.40;;;13.70;90.50;;;;;;5078475;28;20297;-68
2022/05/28 11:21:55;;;;;;;2.10;0.60;;;13.50;90.10;;;;;;5072793;28;20201;-68
2022/05/28 11:24:50;;;;;;;2.47;0.57;;;13.40;89.80;;;;;;5076534;28;20250;-69
2022/05/28 11:27:28;;;;;;;0.50;0.40;;;13.50;90.40;;;;;;5069406;28;20215;-68
2022/05/28 11:30:02;;;;;;;0.90;0.50;;;13.80;90.30;;;;;;5074493;28;20779;-70
2022/05/28 11:32:35;;;;;;;1.20;0.50;;;14.10;90.20;;;;;;5072900;28;20288;-69
2022/05/28 11:35:07;;;;;;;1.13;0.40;;;14.50;90.20;;;;;;5074834;28;20207;-70
2022/05/28 11:37:41;;;;;;;0.60;0.60;;;14.70;89.50;;;;;;5075150;28;20212;-69
2022/05/28 11:40:15;;;;;;;1.67;1.00;;;14.90;88.50;;;;;;5070523;28;20590;-69
2022/05/28 11:42:48;;;;;;;0.70;0.50;;;14.90;88.50;;;;;;5077601;28;20262;-69
2022/05/28 11:45:20;;;;;;;0.40;0.40;;;14.90;88.30;;;;;;5078643;28;20197;-68
2022/05/28 11:47:54;;;;;;;0.40;0.40;;;14.80;89.00;;;;;;5078746;28;20580;-70
2022/05/28 11:53:20;;;;;;;0.50;0.50;;;14.40;91.40;;;;;;5076515;28;20673;-68
2022/05/28 11:55:53;;;;;;;0.60;0.60;;;14.40;92.50;;;;;;5078774;28;20284;-68
2022/05/28 11:58:23;;;;;;;2.43;0.70;;;14.40;92.90;;;;;;5078983;28;20197;-69
2022/05/28 12:00:54;;;;;;;0.97;0.40;;;14.60;93.40;;;;;;5077008;28;20598;-68
2022/05/28 12:03:24;;;;;;;1.47;0.60;;;14.80;92.90;;;;;;5083612;28;20210;-68
2022/05/28 12:05:55;;;;;;;1.63;0.43;;;14.90;92.10;;;;;;5077909;28;20240;-68
2022/05/28 12:08:29;;;;;;;1.77;0.80;;;15.20;91.80;;;;;;5076675;28;20219;-68
2022/05/28 12:10:59;;;;;;;0.97;0.60;;;15.40;90.20;;;;;;5077796;28;20236;-69
2022/05/28 12:13:35;;;;;;;1.07;0.63;;;15.50;88.70;;;;;;5071084;28;20292;-70
2022/05/28 12:16:12;;;;;;;0.80;0.60;;;15.60;88.70;;;;;;5071857;28;20268;-68
2022/05/28 12:18:42;;;;;;;1.07;0.70;;;15.80;88.20;;;;;;5077591;28;20203;-71
2022/05/28 12:21:11;;;;;;;0.83;0.60;;;15.90;87.40;;;;;;5074958;28;20644;-69
2022/05/28 12:23:42;;;;;;;0.50;0.50;;;15.90;85.70;;;;;;5075556;28;20324;-68
2022/05/28 12:26:47;;;;;;;1.33;0.50;;;15.90;84.80;;;;;;5069627;28;20285;-68
2022/05/28 12:29:26;;;;;;;2.47;0.67;;;15.80;84.50;;;;;;5075359;28;20290;-69
2022/05/28 12:31:53;;;;;;;2.00;0.80;;;15.80;83.80;;;;;;5076382;28;20274;-68
2022/05/28 12:34:24;;;;;;;1.60;1.00;;;15.70;83.70;;;;;;5077891;28;20617;-68
2022/05/28 12:36:54;;;;;;;1.20;0.80;;;15.50;84.20;;;;;;5077901;28;20208;-68
2022/05/28 12:39:41;;;;;;;0.93;0.70;;;15.30;85.10;;;;;;5072018;28;20585;-70
2022/05/28 12:42:23;;;;;;;1.13;0.90;;;15.10;86.20;;;;;;5072790;28;20251;-69
2022/05/28 12:44:51;;;;;;;1.57;0.80;;;15.00;87.60;;;;;;5076712;28;20607;-68
2022/05/28 12:47:25;;;;;;;2.27;0.70;;;14.80;88.00;;;;;;5077387;28;20292;-70
2022/05/28 12:50:00;;;;;;;4.17;0.97;;;14.50;89.30;;;;;;5076140;28;20395;-67
2022/05/28 12:52:35;;;;;;;1.33;0.97;;;14.30;90.20;;;;;;5073931;28;20208;-68
2022/05/28 12:55:20;;;;;;;2.90;1.57;;;14.10;91.10;;;;;;5067913;28;20645;-69
2022/05/28 12:58:01;;;;;;;1.47;0.83;;;14.00;91.50;;;;;;5067108;28;20240;-69
2022/05/28 13:00:31;;;;;;;2.53;1.00;;;14.00;92.50;;;;;;5076479;28;20224;-69
2022/05/28 13:02:59;;;;;;;0.90;0.70;;;14.00;93.20;;;;;;5067973;28;20233;-68
2022/05/28 13:05:33;;;;;;;0.50;0.50;;;14.10;93.20;;;;;;5067937;28;20205;-68
2022/05/28 13:08:05;;;;;;;0.87;0.60;;;14.20;92.30;;;;;;5068864;28;20198;-68
2022/05/28 13:10:34;;;;;;;1.50;0.37;;;14.20;92.00;;;;;;5071637;28;20229;-68